sensor_id;sensor_type;location;lat;lon;timestamp;temperature;humidity
51719;DHT22;37795;53.236;5.704;2023-01-16T00:01:50;3.80;85.90
51719;DHT22;37795;53.236;5.704;2023-01-16T00:04:16;3.80;85.60
51719;DHT22;37795;53.236;5.704;2023-01-16T00:06:42;3.80;85.60
51719;DHT22;37795;53.236;5.704;2023-01-16T00:09:08;3.70;85.40
51719;DHT22;37795;53.236;5.704;2023-01-16T00:11:33;3.70;85.30
51719;DHT22;37795;53.236;5.704;2023-01-16T00:13:59;3.60;85.30
51719;DHT22;37795;53.236;5.704;2023-01-16T00:16:26;3.60;85.40
51719;DHT22;37795;53.236;5.704;2023-01-16T00:18:53;3.50;85.40
51719;DHT22;37795;53.236;5.704;2023-01-16T00:21:20;3.50;85.70
51719;DHT22;37795;53.236;5.704;2023-01-16T00:23:46;3.60;85.90
51719;DHT22;37795;53.236;5.704;2023-01-16T00:26:12;3.50;86.00
51719;DHT22;37795;53.236;5.704;2023-01-16T00:28:38;3.60;86.00
51719;DHT22;37795;53.236;5.704;2023-01-16T00:31:05;3.60;86.10
51719;DHT22;37795;53.236;5.704;2023-01-16T00:33:32;3.60;86.10
51719;DHT22;37795;53.236;5.704;2023-01-16T00:35:58;3.70;85.90
51719;DHT22;37795;53.236;5.704;2023-01-16T00:38:24;3.70;85.70
51719;DHT22;37795;53.236;5.704;2023-01-16T00:40:49;3.70;85.50
51719;DHT22;37795;53.236;5.704;2023-01-16T00:43:15;3.70;85.40
51719;DHT22;37795;53.236;5.704;2023-01-16T00:45:41;3.70;85.20
51719;DHT22;37795;53.236;5.704;2023-01-16T00:48:06;3.70;85.00
51719;DHT22;37795;53.236;5.704;2023-01-16T00:50:32;3.70;85.00
51719;DHT22;37795;53.236;5.704;2023-01-16T00:52:58;3.70;84.80
51719;DHT22;37795;53.236;5.704;2023-01-16T00:55:24;3.70;84.60
51719;DHT22;37795;53.236;5.704;2023-01-16T00:57:50;3.70;84.60
51719;DHT22;37795;53.236;5.704;2023-01-16T01:00:17;3.60;84.70
51719;DHT22;37795;53.236;5.704;2023-01-16T01:02:49;3.50;84.90
51719;DHT22;37795;53.236;5.704;2023-01-16T01:05:15;3.60;85.30
51719;DHT22;37795;53.236;5.704;2023-01-16T01:07:41;3.60;85.30
51719;DHT22;37795;53.236;5.704;2023-01-16T01:10:07;3.60;85.30
51719;DHT22;37795;53.236;5.704;2023-01-16T01:12:32;3.60;85.30
51719;DHT22;37795;53.236;5.704;2023-01-16T01:14:58;3.60;85.40
51719;DHT22;37795;53.236;5.704;2023-01-16T01:17:24;3.70;85.50
51719;DHT22;37795;53.236;5.704;2023-01-16T01:19:49;3.70;85.30
51719;DHT22;37795;53.236;5.704;2023-01-16T01:22:15;3.80;85.10
51719;DHT22;37795;53.236;5.704;2023-01-16T01:24:41;3.90;84.90
51719;DHT22;37795;53.236;5.704;2023-01-16T01:27:07;3.90;85.00
51719;DHT22;37795;53.236;5.704;2023-01-16T01:29:33;3.90;84.80
51719;DHT22;37795;53.236;5.704;2023-01-16T01:31:59;3.90;84.80
51719;DHT22;37795;53.236;5.704;2023-01-16T01:34:24;3.90;84.70
51719;DHT22;37795;53.236;5.704;2023-01-16T01:36:50;3.90;84.50
51719;DHT22;37795;53.236;5.704;2023-01-16T01:39:16;3.90;84.60
51719;DHT22;37795;53.236;5.704;2023-01-16T01:41:42;3.90;84.60
51719;DHT22;37795;53.236;5.704;2023-01-16T01:47:07;4.00;84.70
51719;DHT22;37795;53.236;5.704;2023-01-16T01:49:34;4.00;84.90
51719;DHT22;37795;53.236;5.704;2023-01-16T01:52:02;4.00;84.90
51719;DHT22;37795;53.236;5.704;2023-01-16T01:54:33;4.10;85.00
51719;DHT22;37795;53.236;5.704;2023-01-16T01:57:12;4.10;85.10
51719;DHT22;37795;53.236;5.704;2023-01-16T01:59:46;4.10;85.20
51719;DHT22;37795;53.236;5.704;2023-01-16T02:02:17;4.10;85.20
51719;DHT22;37795;53.236;5.704;2023-01-16T02:04:46;4.10;85.30
51719;DHT22;37795;53.236;5.704;2023-01-16T02:07:15;4.10;85.40
51719;DHT22;37795;53.236;5.704;2023-01-16T02:09:42;4.10;85.40
51719;DHT22;37795;53.236;5.704;2023-01-16T02:12:10;4.10;85.50
51719;DHT22;37795;53.236;5.704;2023-01-16T02:14:39;4.10;85.40
51719;DHT22;37795;53.236;5.704;2023-01-16T02:31:11;4.20;85.60
51719;DHT22;37795;53.236;5.704;2023-01-16T02:36:37;4.10;85.50
51719;DHT22;37795;53.236;5.704;2023-01-16T02:42:26;4.00;85.50
51719;DHT22;37795;53.236;5.704;2023-01-16T02:45:17;4.00;85.40
51719;DHT22;37795;53.236;5.704;2023-01-16T02:47:52;4.00;85.50
51719;DHT22;37795;53.236;5.704;2023-01-16T02:50:21;4.00;85.40
51719;DHT22;37795;53.236;5.704;2023-01-16T02:53:00;4.00;85.40
51719;DHT22;37795;53.236;5.704;2023-01-16T02:55:33;4.00;85.40
51719;DHT22;37795;53.236;5.704;2023-01-16T02:58:02;4.00;85.40
51719;DHT22;37795;53.236;5.704;2023-01-16T03:00:29;4.00;85.40
51719;DHT22;37795;53.236;5.704;2023-01-16T03:02:55;4.00;85.40
51719;DHT22;37795;53.236;5.704;2023-01-16T03:05:21;4.00;85.40
51719;DHT22;37795;53.236;5.704;2023-01-16T03:18:36;4.10;85.20
51719;DHT22;37795;53.236;5.704;2023-01-16T03:24:31;4.10;85.10
51719;DHT22;37795;53.236;5.704;2023-01-16T03:27:16;4.10;85.00
51719;DHT22;37795;53.236;5.704;2023-01-16T03:32:50;4.00;84.90
51719;DHT22;37795;53.236;5.704;2023-01-16T03:35:26;4.00;84.90
51719;DHT22;37795;53.236;5.704;2023-01-16T03:38:02;4.00;84.90
51719;DHT22;37795;53.236;5.704;2023-01-16T03:40:31;4.00;84.90
51719;DHT22;37795;53.236;5.704;2023-01-16T03:43:06;4.00;84.80
51719;DHT22;37795;53.236;5.704;2023-01-16T03:45:52;4.00;84.80
51719;DHT22;37795;53.236;5.704;2023-01-16T03:51:02;3.90;84.80
51719;DHT22;37795;53.236;5.704;2023-01-16T03:53:35;3.90;84.90
51719;DHT22;37795;53.236;5.704;2023-01-16T03:56:19;3.90;84.90
51719;DHT22;37795;53.236;5.704;2023-01-16T03:58:46;3.90;84.90
51719;DHT22;37795;53.236;5.704;2023-01-16T04:01:40;3.90;84.80
51719;DHT22;37795;53.236;5.704;2023-01-16T04:09:21;3.90;84.90
51719;DHT22;37795;53.236;5.704;2023-01-16T04:11:50;3.90;84.90
51719;DHT22;37795;53.236;5.704;2023-01-16T04:14:20;3.90;85.00
51719;DHT22;37795;53.236;5.704;2023-01-16T04:16:47;3.90;85.00
51719;DHT22;37795;53.236;5.704;2023-01-16T04:19:15;3.90;84.90
51719;DHT22;37795;53.236;5.704;2023-01-16T04:21:47;3.90;85.00
51719;DHT22;37795;53.236;5.704;2023-01-16T04:24:14;3.90;85.00
51719;DHT22;37795;53.236;5.704;2023-01-16T04:26:40;3.90;85.20
51719;DHT22;37795;53.236;5.704;2023-01-16T04:29:05;3.90;85.20
51719;DHT22;37795;53.236;5.704;2023-01-16T04:31:31;4.00;85.30
51719;DHT22;37795;53.236;5.704;2023-01-16T04:33:57;4.00;85.30
51719;DHT22;37795;53.236;5.704;2023-01-16T04:36:22;4.00;85.40
51719;DHT22;37795;53.236;5.704;2023-01-16T04:38:48;4.10;85.40
51719;DHT22;37795;53.236;5.704;2023-01-16T04:41:14;4.10;85.40
51719;DHT22;37795;53.236;5.704;2023-01-16T04:44:04;4.00;85.10
51719;DHT22;37795;53.236;5.704;2023-01-16T04:46:30;4.00;85.00
51719;DHT22;37795;53.236;5.704;2023-01-16T04:48:56;4.00;84.80
51719;DHT22;37795;53.236;5.704;2023-01-16T04:51:22;4.00;84.80
51719;DHT22;37795;53.236;5.704;2023-01-16T04:53:48;3.90;84.60
51719;DHT22;37795;53.236;5.704;2023-01-16T04:56:13;3.90;84.60
51719;DHT22;37795;53.236;5.704;2023-01-16T04:58:39;3.80;84.50
51719;DHT22;37795;53.236;5.704;2023-01-16T05:01:05;3.80;84.60
51719;DHT22;37795;53.236;5.704;2023-01-16T05:03:30;3.80;84.50
51719;DHT22;37795;53.236;5.704;2023-01-16T05:05:56;3.80;84.60
51719;DHT22;37795;53.236;5.704;2023-01-16T05:08:22;3.90;84.50
51719;DHT22;37795;53.236;5.704;2023-01-16T05:10:51;3.90;84.50
51719;DHT22;37795;53.236;5.704;2023-01-16T05:13:17;3.80;84.40
51719;DHT22;37795;53.236;5.704;2023-01-16T05:15:43;3.80;84.30
51719;DHT22;37795;53.236;5.704;2023-01-16T05:18:09;3.80;84.30
51719;DHT22;37795;53.236;5.704;2023-01-16T05:20:37;3.80;84.10
51719;DHT22;37795;53.236;5.704;2023-01-16T05:23:03;3.80;84.30
51719;DHT22;37795;53.236;5.704;2023-01-16T05:25:29;3.70;84.20
51719;DHT22;37795;53.236;5.704;2023-01-16T05:27:55;3.70;84.10
51719;DHT22;37795;53.236;5.704;2023-01-16T05:30:21;3.70;84.30
51719;DHT22;37795;53.236;5.704;2023-01-16T05:32:46;3.70;84.20
51719;DHT22;37795;53.236;5.704;2023-01-16T05:35:12;3.70;84.30
51719;DHT22;37795;53.236;5.704;2023-01-16T05:37:38;3.70;84.30
51719;DHT22;37795;53.236;5.704;2023-01-16T05:40:04;3.70;84.40
51719;DHT22;37795;53.236;5.704;2023-01-16T05:42:30;3.70;84.40
51719;DHT22;37795;53.236;5.704;2023-01-16T05:44:56;3.70;84.50
51719;DHT22;37795;53.236;5.704;2023-01-16T05:47:21;3.70;84.40
51719;DHT22;37795;53.236;5.704;2023-01-16T05:49:47;3.60;84.40
51719;DHT22;37795;53.236;5.704;2023-01-16T05:52:13;3.60;84.50
51719;DHT22;37795;53.236;5.704;2023-01-16T05:54:39;3.60;84.60
51719;DHT22;37795;53.236;5.704;2023-01-16T05:57:04;3.60;84.60
51719;DHT22;37795;53.236;5.704;2023-01-16T05:59:30;3.70;84.70
51719;DHT22;37795;53.236;5.704;2023-01-16T06:01:56;3.70;84.60
51719;DHT22;37795;53.236;5.704;2023-01-16T06:04:23;3.70;84.60
51719;DHT22;37795;53.236;5.704;2023-01-16T06:06:49;3.70;84.70
51719;DHT22;37795;53.236;5.704;2023-01-16T06:09:15;3.70;84.60
51719;DHT22;37795;53.236;5.704;2023-01-16T06:11:40;3.70;84.60
51719;DHT22;37795;53.236;5.704;2023-01-16T06:14:06;3.70;84.50
51719;DHT22;37795;53.236;5.704;2023-01-16T06:16:33;3.70;84.50
51719;DHT22;37795;53.236;5.704;2023-01-16T06:18:59;3.70;84.40
51719;DHT22;37795;53.236;5.704;2023-01-16T06:21:24;3.70;84.50
51719;DHT22;37795;53.236;5.704;2023-01-16T06:23:50;3.70;84.40
51719;DHT22;37795;53.236;5.704;2023-01-16T06:26:16;3.70;84.30
51719;DHT22;37795;53.236;5.704;2023-01-16T06:28:42;3.70;84.30
51719;DHT22;37795;53.236;5.704;2023-01-16T06:31:07;3.70;84.30
51719;DHT22;37795;53.236;5.704;2023-01-16T06:33:34;3.70;84.30
51719;DHT22;37795;53.236;5.704;2023-01-16T06:36:00;3.70;84.40
51719;DHT22;37795;53.236;5.704;2023-01-16T06:38:26;3.70;84.30
51719;DHT22;37795;53.236;5.704;2023-01-16T06:40:51;3.70;84.20
51719;DHT22;37795;53.236;5.704;2023-01-16T06:43:25;3.70;84.20
51719;DHT22;37795;53.236;5.704;2023-01-16T06:45:52;3.70;84.20
51719;DHT22;37795;53.236;5.704;2023-01-16T06:48:18;3.70;84.20
51719;DHT22;37795;53.236;5.704;2023-01-16T06:50:44;3.70;84.20
51719;DHT22;37795;53.236;5.704;2023-01-16T06:58:19;4.10;83.10
51719;DHT22;37795;53.236;5.704;2023-01-16T07:00:44;3.60;83.90
51719;DHT22;37795;53.236;5.704;2023-01-16T07:03:10;3.50;84.00
51719;DHT22;37795;53.236;5.704;2023-01-16T07:05:38;3.50;84.00
51719;DHT22;37795;53.236;5.704;2023-01-16T07:08:04;3.50;84.00
51719;DHT22;37795;53.236;5.704;2023-01-16T07:10:29;3.50;84.00
51719;DHT22;37795;53.236;5.704;2023-01-16T07:12:55;3.50;84.00
51719;DHT22;37795;53.236;5.704;2023-01-16T07:15:22;3.50;83.90
51719;DHT22;37795;53.236;5.704;2023-01-16T07:18:11;3.50;83.90
51719;DHT22;37795;53.236;5.704;2023-01-16T07:21:13;3.50;83.90
51719;DHT22;37795;53.236;5.704;2023-01-16T07:24:04;3.50;84.00
51719;DHT22;37795;53.236;5.704;2023-01-16T07:26:32;3.50;84.00
51719;DHT22;37795;53.236;5.704;2023-01-16T07:28:58;3.50;84.00
51719;DHT22;37795;53.236;5.704;2023-01-16T07:31:25;3.50;84.00
51719;DHT22;37795;53.236;5.704;2023-01-16T07:33:51;3.50;84.00
51719;DHT22;37795;53.236;5.704;2023-01-16T07:36:17;3.50;84.00
51719;DHT22;37795;53.236;5.704;2023-01-16T07:38:42;3.50;84.00
51719;DHT22;37795;53.236;5.704;2023-01-16T07:41:08;3.50;83.90
51719;DHT22;37795;53.236;5.704;2023-01-16T07:43:34;3.50;84.00
51719;DHT22;37795;53.236;5.704;2023-01-16T07:46:00;3.40;84.00
51719;DHT22;37795;53.236;5.704;2023-01-16T07:48:26;3.50;84.00
51719;DHT22;37795;53.236;5.704;2023-01-16T07:50:58;3.40;83.90
51719;DHT22;37795;53.236;5.704;2023-01-16T07:53:26;3.40;83.90
51719;DHT22;37795;53.236;5.704;2023-01-16T07:55:56;3.50;83.90
51719;DHT22;37795;53.236;5.704;2023-01-16T07:58:22;3.40;83.90
51719;DHT22;37795;53.236;5.704;2023-01-16T08:00:49;3.40;83.90
51719;DHT22;37795;53.236;5.704;2023-01-16T08:03:16;3.50;83.90
51719;DHT22;37795;53.236;5.704;2023-01-16T08:05:42;3.50;83.90
51719;DHT22;37795;53.236;5.704;2023-01-16T08:08:12;3.50;83.90
51719;DHT22;37795;53.236;5.704;2023-01-16T08:10:38;3.50;83.90
51719;DHT22;37795;53.236;5.704;2023-01-16T08:13:04;3.50;83.90
51719;DHT22;37795;53.236;5.704;2023-01-16T08:15:30;3.50;83.90
51719;DHT22;37795;53.236;5.704;2023-01-16T08:17:56;3.50;83.90
51719;DHT22;37795;53.236;5.704;2023-01-16T08:20:22;3.50;83.80
51719;DHT22;37795;53.236;5.704;2023-01-16T08:22:49;3.50;83.80
51719;DHT22;37795;53.236;5.704;2023-01-16T08:25:16;3.50;83.60
51719;DHT22;37795;53.236;5.704;2023-01-16T08:27:43;3.50;83.70
51719;DHT22;37795;53.236;5.704;2023-01-16T08:30:10;3.50;83.70
51719;DHT22;37795;53.236;5.704;2023-01-16T08:32:36;3.50;83.60
51719;DHT22;37795;53.236;5.704;2023-01-16T08:35:03;3.50;83.70
51719;DHT22;37795;53.236;5.704;2023-01-16T08:37:30;3.50;83.70
51719;DHT22;37795;53.236;5.704;2023-01-16T08:39:55;3.50;83.70
51719;DHT22;37795;53.236;5.704;2023-01-16T08:42:22;3.50;83.60
51719;DHT22;37795;53.236;5.704;2023-01-16T08:45:09;3.50;83.60
51719;DHT22;37795;53.236;5.704;2023-01-16T08:47:54;3.60;83.70
51719;DHT22;37795;53.236;5.704;2023-01-16T08:50:39;3.60;83.60
51719;DHT22;37795;53.236;5.704;2023-01-16T08:53:23;3.60;83.50
51719;DHT22;37795;53.236;5.704;2023-01-16T08:55:49;3.60;83.40
51719;DHT22;37795;53.236;5.704;2023-01-16T08:58:15;3.70;83.30
51719;DHT22;37795;53.236;5.704;2023-01-16T09:00:41;3.70;83.30
51719;DHT22;37795;53.236;5.704;2023-01-16T09:03:07;3.70;83.30
51719;DHT22;37795;53.236;5.704;2023-01-16T09:05:33;3.70;83.10
51719;DHT22;37795;53.236;5.704;2023-01-16T09:07:58;3.70;83.10
51719;DHT22;37795;53.236;5.704;2023-01-16T09:10:25;3.80;83.20
51719;DHT22;37795;53.236;5.704;2023-01-16T09:12:51;3.80;82.90
51719;DHT22;37795;53.236;5.704;2023-01-16T09:15:35;3.80;82.90
51719;DHT22;37795;53.236;5.704;2023-01-16T09:18:01;3.80;82.90
51719;DHT22;37795;53.236;5.704;2023-01-16T09:20:27;3.80;82.80
51719;DHT22;37795;53.236;5.704;2023-01-16T09:22:57;3.80;82.80
51719;DHT22;37795;53.236;5.704;2023-01-16T09:25:23;3.90;82.60
51719;DHT22;37795;53.236;5.704;2023-01-16T09:27:49;3.90;82.70
51719;DHT22;37795;53.236;5.704;2023-01-16T09:30:15;3.90;82.80
51719;DHT22;37795;53.236;5.704;2023-01-16T09:32:40;3.90;82.80
51719;DHT22;37795;53.236;5.704;2023-01-16T09:35:06;3.90;83.00
51719;DHT22;37795;53.236;5.704;2023-01-16T09:37:32;3.90;83.00
51719;DHT22;37795;53.236;5.704;2023-01-16T09:39:58;3.90;83.20
51719;DHT22;37795;53.236;5.704;2023-01-16T09:45:29;3.90;83.20
51719;DHT22;37795;53.236;5.704;2023-01-16T09:48:44;3.90;83.20
51719;DHT22;37795;53.236;5.704;2023-01-16T09:50:49;3.90;83.40
51719;DHT22;37795;53.236;5.704;2023-01-16T09:53:20;3.90;83.30
51719;DHT22;37795;53.236;5.704;2023-01-16T09:56:07;3.90;83.30
51719;DHT22;37795;53.236;5.704;2023-01-16T10:01:38;3.90;83.20
51719;DHT22;37795;53.236;5.704;2023-01-16T10:04:19;4.00;83.20
51719;DHT22;37795;53.236;5.704;2023-01-16T10:12:32;3.90;83.30
51719;DHT22;37795;53.236;5.704;2023-01-16T10:15:17;3.90;83.40
51719;DHT22;37795;53.236;5.704;2023-01-16T10:23:21;3.90;83.60
51719;DHT22;37795;53.236;5.704;2023-01-16T10:25:54;3.90;83.70
51719;DHT22;37795;53.236;5.704;2023-01-16T10:28:52;3.90;83.70
51719;DHT22;37795;53.236;5.704;2023-01-16T10:31:36;3.90;83.70
51719;DHT22;37795;53.236;5.704;2023-01-16T10:36:33;3.90;83.80
51719;DHT22;37795;53.236;5.704;2023-01-16T10:39:01;3.90;84.00
51719;DHT22;37795;53.236;5.704;2023-01-16T10:41:32;3.90;84.10
51719;DHT22;37795;53.236;5.704;2023-01-16T10:44:37;3.90;84.10
51719;DHT22;37795;53.236;5.704;2023-01-16T10:47:25;3.90;84.20
51719;DHT22;37795;53.236;5.704;2023-01-16T10:50:10;3.90;84.00
51719;DHT22;37795;53.236;5.704;2023-01-16T11:01:04;3.70;83.50
51719;DHT22;37795;53.236;5.704;2023-01-16T11:06:19;3.60;83.10
51719;DHT22;37795;53.236;5.704;2023-01-16T11:08:48;3.50;82.90
51719;DHT22;37795;53.236;5.704;2023-01-16T11:11:15;3.50;82.90
51719;DHT22;37795;53.236;5.704;2023-01-16T11:14:03;3.50;83.00
51719;DHT22;37795;53.236;5.704;2023-01-16T11:16:49;3.50;83.20
51719;DHT22;37795;53.236;5.704;2023-01-16T11:19:42;3.50;83.20
51719;DHT22;37795;53.236;5.704;2023-01-16T11:22:23;3.50;83.40
51719;DHT22;37795;53.236;5.704;2023-01-16T11:24:55;3.50;83.40
51719;DHT22;37795;53.236;5.704;2023-01-16T11:27:24;3.50;83.50
51719;DHT22;37795;53.236;5.704;2023-01-16T11:29:53;3.60;83.60
51719;DHT22;37795;53.236;5.704;2023-01-16T11:32:20;3.50;83.50
51719;DHT22;37795;53.236;5.704;2023-01-16T11:34:53;3.40;83.30
51719;DHT22;37795;53.236;5.704;2023-01-16T11:37:20;3.40;83.10
51719;DHT22;37795;53.236;5.704;2023-01-16T11:39:52;3.40;83.40
51719;DHT22;37795;53.236;5.704;2023-01-16T11:42:19;3.40;83.40
51719;DHT22;37795;53.236;5.704;2023-01-16T11:45:32;3.40;83.20
51719;DHT22;37795;53.236;5.704;2023-01-16T11:48:18;3.40;83.40
51719;DHT22;37795;53.236;5.704;2023-01-16T11:50:57;3.40;83.50
51719;DHT22;37795;53.236;5.704;2023-01-16T11:53:29;3.30;83.40
51719;DHT22;37795;53.236;5.704;2023-01-16T12:13:16;3.20;83.70
51719;DHT22;37795;53.236;5.704;2023-01-16T12:22:16;3.20;83.90
51719;DHT22;37795;53.236;5.704;2023-01-16T12:40:27;3.10;83.80
51719;DHT22;37795;53.236;5.704;2023-01-16T12:59:56;3.10;83.90
51719;DHT22;37795;53.236;5.704;2023-01-16T13:02:35;3.10;84.10
51719;DHT22;37795;53.236;5.704;2023-01-16T13:05:07;3.10;84.10
51719;DHT22;37795;53.236;5.704;2023-01-16T13:07:59;3.10;84.20
51719;DHT22;37795;53.236;5.704;2023-01-16T13:10:35;3.10;84.20
51719;DHT22;37795;53.236;5.704;2023-01-16T13:13:48;3.10;84.20
51719;DHT22;37795;53.236;5.704;2023-01-16T13:16:29;3.10;84.20
51719;DHT22;37795;53.236;5.704;2023-01-16T13:19:16;3.10;84.30
51719;DHT22;37795;53.236;5.704;2023-01-16T13:24:30;3.10;84.40
51719;DHT22;37795;53.236;5.704;2023-01-16T13:27:02;3.20;84.60
51719;DHT22;37795;53.236;5.704;2023-01-16T13:29:33;3.20;84.60
51719;DHT22;37795;53.236;5.704;2023-01-16T13:32:30;3.20;84.60
51719;DHT22;37795;53.236;5.704;2023-01-16T13:35:21;3.20;84.70
51719;DHT22;37795;53.236;5.704;2023-01-16T13:41:13;3.20;85.00
51719;DHT22;37795;53.236;5.704;2023-01-16T13:44:08;3.20;85.00
51719;DHT22;37795;53.236;5.704;2023-01-16T13:46:55;3.30;85.20
51719;DHT22;37795;53.236;5.704;2023-01-16T13:49:22;3.30;85.30
51719;DHT22;37795;53.236;5.704;2023-01-16T13:51:51;3.30;85.30
51719;DHT22;37795;53.236;5.704;2023-01-16T13:54:36;3.40;85.30
51719;DHT22;37795;53.236;5.704;2023-01-16T13:57:11;3.40;85.40
51719;DHT22;37795;53.236;5.704;2023-01-16T13:59:43;3.40;85.40
51719;DHT22;37795;53.236;5.704;2023-01-16T14:02:26;3.50;85.50
51719;DHT22;37795;53.236;5.704;2023-01-16T14:10:46;3.60;85.40
51719;DHT22;37795;53.236;5.704;2023-01-16T14:15:54;3.70;85.30
51719;DHT22;37795;53.236;5.704;2023-01-16T14:23:59;3.70;85.10
51719;DHT22;37795;53.236;5.704;2023-01-16T14:34:49;3.50;84.50
51719;DHT22;37795;53.236;5.704;2023-01-16T14:37:31;3.50;84.50
51719;DHT22;37795;53.236;5.704;2023-01-16T14:40:04;3.30;83.80
51719;DHT22;37795;53.236;5.704;2023-01-16T14:42:53;3.10;84.50
51719;DHT22;37795;53.236;5.704;2023-01-16T14:46:12;3.10;85.00
51719;DHT22;37795;53.236;5.704;2023-01-16T14:48:43;3.20;85.00
51719;DHT22;37795;53.236;5.704;2023-01-16T14:51:32;3.10;84.80
51719;DHT22;37795;53.236;5.704;2023-01-16T14:54:21;3.00;85.30
51719;DHT22;37795;53.236;5.704;2023-01-16T14:57:11;3.00;85.40
51719;DHT22;37795;53.236;5.704;2023-01-16T15:02:18;3.00;85.40
51719;DHT22;37795;53.236;5.704;2023-01-16T15:05:04;3.10;85.70
51719;DHT22;37795;53.236;5.704;2023-01-16T15:07:53;3.10;85.70
51719;DHT22;37795;53.236;5.704;2023-01-16T15:10:39;3.00;85.50
51719;DHT22;37795;53.236;5.704;2023-01-16T15:16:07;3.10;85.80
51719;DHT22;37795;53.236;5.704;2023-01-16T15:18:42;3.10;85.80
51719;DHT22;37795;53.236;5.704;2023-01-16T15:21:26;3.20;85.80
51719;DHT22;37795;53.236;5.704;2023-01-16T15:24:17;3.10;85.70
51719;DHT22;37795;53.236;5.704;2023-01-16T15:31:46;3.30;85.80
51719;DHT22;37795;53.236;5.704;2023-01-16T15:36:44;3.30;85.70
51719;DHT22;37795;53.236;5.704;2023-01-16T15:41:48;3.20;85.50
51719;DHT22;37795;53.236;5.704;2023-01-16T15:44:38;3.40;85.70
51719;DHT22;37795;53.236;5.704;2023-01-16T15:53:38;3.60;85.70
51719;DHT22;37795;53.236;5.704;2023-01-16T15:58:51;3.60;85.50
51719;DHT22;37795;53.236;5.704;2023-01-16T16:01:32;3.60;85.40
51719;DHT22;37795;53.236;5.704;2023-01-16T16:04:02;3.60;85.50
51719;DHT22;37795;53.236;5.704;2023-01-16T16:06:29;3.70;85.50
51719;DHT22;37795;53.236;5.704;2023-01-16T16:08:56;3.70;85.30
51719;DHT22;37795;53.236;5.704;2023-01-16T16:11:30;3.70;85.20
51719;DHT22;37795;53.236;5.704;2023-01-16T16:14:29;3.70;85.20
51719;DHT22;37795;53.236;5.704;2023-01-16T16:17:26;3.70;85.20
51719;DHT22;37795;53.236;5.704;2023-01-16T16:20:36;3.80;85.10
51719;DHT22;37795;53.236;5.704;2023-01-16T16:25:35;3.80;85.00
51719;DHT22;37795;53.236;5.704;2023-01-16T16:31:27;3.80;84.90
51719;DHT22;37795;53.236;5.704;2023-01-16T16:33:55;3.80;84.80
51719;DHT22;37795;53.236;5.704;2023-01-16T16:36:21;3.80;84.70
51719;DHT22;37795;53.236;5.704;2023-01-16T16:38:48;3.80;84.70
51719;DHT22;37795;53.236;5.704;2023-01-16T16:43:56;3.80;84.70
51719;DHT22;37795;53.236;5.704;2023-01-16T16:48:57;3.80;84.60
51719;DHT22;37795;53.236;5.704;2023-01-16T16:51:27;3.80;84.50
51719;DHT22;37795;53.236;5.704;2023-01-16T16:54:04;3.80;84.40
51719;DHT22;37795;53.236;5.704;2023-01-16T16:56:33;3.80;84.40
51719;DHT22;37795;53.236;5.704;2023-01-16T16:58:59;3.80;84.40
51719;DHT22;37795;53.236;5.704;2023-01-16T17:01:26;3.80;84.20
51719;DHT22;37795;53.236;5.704;2023-01-16T17:03:56;3.80;84.10
51719;DHT22;37795;53.236;5.704;2023-01-16T17:06:28;3.80;84.10
51719;DHT22;37795;53.236;5.704;2023-01-16T17:08:55;3.80;84.00
51719;DHT22;37795;53.236;5.704;2023-01-16T17:11:21;3.80;83.90
51719;DHT22;37795;53.236;5.704;2023-01-16T17:13:46;3.70;83.90
51719;DHT22;37795;53.236;5.704;2023-01-16T17:16:17;3.80;83.90
51719;DHT22;37795;53.236;5.704;2023-01-16T17:18:44;3.80;83.90
51719;DHT22;37795;53.236;5.704;2023-01-16T17:21:14;3.80;83.80
51719;DHT22;37795;53.236;5.704;2023-01-16T17:23:40;3.80;83.80
51719;DHT22;37795;53.236;5.704;2023-01-16T17:26:06;3.80;83.70
51719;DHT22;37795;53.236;5.704;2023-01-16T17:28:34;3.70;83.60
51719;DHT22;37795;53.236;5.704;2023-01-16T17:30:59;3.80;83.60
51719;DHT22;37795;53.236;5.704;2023-01-16T17:33:25;3.80;83.60
51719;DHT22;37795;53.236;5.704;2023-01-16T17:35:52;3.90;83.70
51719;DHT22;37795;53.236;5.704;2023-01-16T17:38:38;3.80;83.40
51719;DHT22;37795;53.236;5.704;2023-01-16T17:41:05;3.70;83.30
51719;DHT22;37795;53.236;5.704;2023-01-16T17:43:33;3.70;83.30
51719;DHT22;37795;53.236;5.704;2023-01-16T17:46:19;3.70;83.30
51719;DHT22;37795;53.236;5.704;2023-01-16T17:48:49;3.60;83.10
51719;DHT22;37795;53.236;5.704;2023-01-16T17:51:15;3.60;82.90
51719;DHT22;37795;53.236;5.704;2023-01-16T17:53:41;3.50;82.80
51719;DHT22;37795;53.236;5.704;2023-01-16T17:56:07;3.30;82.20
51719;DHT22;37795;53.236;5.704;2023-01-16T17:58:36;3.20;81.80
51719;DHT22;37795;53.236;5.704;2023-01-16T18:01:28;3.10;82.00
51719;DHT22;37795;53.236;5.704;2023-01-16T18:03:57;3.10;82.20
51719;DHT22;37795;53.236;5.704;2023-01-16T18:06:26;3.00;82.40
51719;DHT22;37795;53.236;5.704;2023-01-16T18:08:53;3.00;82.30
51719;DHT22;37795;53.236;5.704;2023-01-16T18:11:19;2.90;82.30
51719;DHT22;37795;53.236;5.704;2023-01-16T18:14:04;3.00;82.80
51719;DHT22;37795;53.236;5.704;2023-01-16T18:16:48;3.00;83.00
51719;DHT22;37795;53.236;5.704;2023-01-16T18:19:32;3.00;83.00
51719;DHT22;37795;53.236;5.704;2023-01-16T18:21:58;2.90;82.90
51719;DHT22;37795;53.236;5.704;2023-01-16T18:24:38;2.80;83.00
51719;DHT22;37795;53.236;5.704;2023-01-16T18:27:07;2.90;83.40
51719;DHT22;37795;53.236;5.704;2023-01-16T18:29:33;2.80;83.40
51719;DHT22;37795;53.236;5.704;2023-01-16T18:32:00;2.80;83.80
51719;DHT22;37795;53.236;5.704;2023-01-16T18:34:54;2.80;83.80
51719;DHT22;37795;53.236;5.704;2023-01-16T18:37:29;2.80;83.90
51719;DHT22;37795;53.236;5.704;2023-01-16T18:39:54;2.60;83.90
51719;DHT22;37795;53.236;5.704;2023-01-16T18:42:39;2.60;84.40
51719;DHT22;37795;53.236;5.704;2023-01-16T18:45:32;2.70;84.40
51719;DHT22;37795;53.236;5.704;2023-01-16T18:48:16;2.80;84.70
51719;DHT22;37795;53.236;5.704;2023-01-16T18:58:18;3.30;84.70
51719;DHT22;37795;53.236;5.704;2023-01-16T19:01:02;3.10;84.60
51719;DHT22;37795;53.236;5.704;2023-01-16T19:03:46;3.20;84.60
51719;DHT22;37795;53.236;5.704;2023-01-16T19:06:12;3.30;84.70
51719;DHT22;37795;53.236;5.704;2023-01-16T19:08:38;3.40;84.70
51719;DHT22;37795;53.236;5.704;2023-01-16T19:11:03;3.50;84.80
51719;DHT22;37795;53.236;5.704;2023-01-16T19:13:29;3.60;84.80
51719;DHT22;37795;53.236;5.704;2023-01-16T19:16:05;3.70;84.80
51719;DHT22;37795;53.236;5.704;2023-01-16T19:18:49;3.80;84.80
51719;DHT22;37795;53.236;5.704;2023-01-16T19:21:16;3.80;84.70
51719;DHT22;37795;53.236;5.704;2023-01-16T19:23:42;3.80;84.70
51719;DHT22;37795;53.236;5.704;2023-01-16T19:26:07;3.80;84.60
51719;DHT22;37795;53.236;5.704;2023-01-16T19:28:34;3.80;84.60
51719;DHT22;37795;53.236;5.704;2023-01-16T19:31:00;3.90;84.60
51719;DHT22;37795;53.236;5.704;2023-01-16T19:33:25;3.90;84.60
51719;DHT22;37795;53.236;5.704;2023-01-16T19:35:52;3.90;84.60
51719;DHT22;37795;53.236;5.704;2023-01-16T19:38:18;3.90;84.50
51719;DHT22;37795;53.236;5.704;2023-01-16T19:40:44;3.90;84.50
51719;DHT22;37795;53.236;5.704;2023-01-16T19:43:09;3.90;84.60
51719;DHT22;37795;53.236;5.704;2023-01-16T19:45:57;3.90;84.50